createdAt,value
2022-11-23T00:01:35.245Z,97658.28
2022-11-23T00:04:06.189Z,97654.31
2022-11-23T00:06:33.908Z,97663.63
2022-11-23T00:09:01.016Z,97665.63
2022-11-23T00:11:28.479Z,97662.03
2022-11-23T00:13:56.039Z,97659.41
2022-11-23T00:16:27.281Z,97667.13
2022-11-23T00:19:01.902Z,97661.31
2022-11-23T00:21:31.741Z,97644.13
2022-11-23T00:23:59.189Z,97665.97
2022-11-23T00:26:26.246Z,97664.94
2022-11-23T00:28:53.228Z,97654.91
2022-11-23T00:31:21.720Z,97665.44
2022-11-23T00:33:53.839Z,97660.63
2022-11-23T00:36:22.692Z,97663.22
2022-11-23T00:38:50.544Z,97661.56
2022-11-23T00:41:24.464Z,97663.72
2022-11-23T00:43:51.350Z,97653.16
2022-11-23T00:46:24.551Z,97659.78
2022-11-23T00:48:53.958Z,97655.66
2022-11-23T00:51:25.894Z,97655.38
2022-11-23T00:53:53.103Z,97656.47
2022-11-23T00:56:20.548Z,97663.94
2022-11-23T00:58:51.702Z,97663.28
2022-11-23T01:01:22.203Z,97666.03
2022-11-23T01:03:53.472Z,97664.50
2022-11-23T01:06:36.232Z,97658.59
2022-11-23T01:09:13.496Z,97668.59
2022-11-23T01:11:40.595Z,97661.84
2022-11-23T01:14:07.628Z,97669.19
2022-11-23T01:16:38.070Z,97674.50
2022-11-23T01:19:10.225Z,97671.75
2022-11-23T01:21:37.732Z,97665.09
2022-11-23T01:24:07.234Z,97667.91
2022-11-23T01:26:34.141Z,97672.56
2022-11-23T01:29:00.932Z,97680.19
2022-11-23T01:31:27.771Z,97678.50
2022-11-23T01:33:57.093Z,97684.50
2022-11-23T01:36:28.837Z,97675.19
2022-11-23T01:38:56.202Z,97684.50
2022-11-23T01:41:29.852Z,97682.09
2022-11-23T01:43:57.035Z,97681.00
2022-11-23T01:46:23.900Z,97677.69
2022-11-23T01:49:02.378Z,97687.66
2022-11-23T01:51:37.719Z,97690.31
2022-11-23T01:54:15.107Z,97689.47
2022-11-23T01:56:46.745Z,97689.47
2022-11-23T01:59:18.494Z,97694.41
2022-11-23T02:01:45.669Z,97690.91
2022-11-23T02:04:21.653Z,97690.97
2022-11-23T02:06:48.635Z,97681.91
2022-11-23T02:09:17.235Z,97698.38
2022-11-23T02:11:44.680Z,97677.38
2022-11-23T02:14:11.758Z,97696.72
2022-11-23T02:16:40.548Z,97702.44
2022-11-23T02:19:47.697Z,97699.28
2022-11-23T02:22:49.688Z,97700.81
2022-11-23T02:25:47.832Z,97700.81
2022-11-23T02:28:30.241Z,97698.66
2022-11-23T02:30:57.115Z,97687.69
2022-11-23T02:33:25.262Z,97690.00
2022-11-23T02:36:00.807Z,97695.16
2022-11-23T02:38:32.749Z,97701.81
2022-11-23T02:40:59.726Z,97684.06
2022-11-23T02:43:27.062Z,97706.38
2022-11-23T02:45:57.476Z,97715.06
2022-11-23T02:48:24.765Z,97707.88
2022-11-23T02:50:51.679Z,97702.28
2022-11-23T02:53:19.108Z,97700.63
2022-11-23T02:55:46.064Z,97691.31
2022-11-23T02:58:12.922Z,97701.59
2022-11-23T03:00:40.109Z,97691.81
2022-11-23T03:03:07.333Z,97695.38
2022-11-23T03:05:35.037Z,97711.56
2022-11-23T03:08:01.832Z,97709.88
2022-11-23T03:10:28.706Z,97702.25
2022-11-23T03:12:56.887Z,97709.75
2022-11-23T03:15:24.858Z,97709.88
2022-11-23T03:17:51.882Z,97698.88
2022-11-23T03:20:18.916Z,97668.69
2022-11-23T03:22:46.321Z,97682.47
2022-11-23T03:25:13.701Z,97705.22
2022-11-23T03:27:40.648Z,97701.16
2022-11-23T03:30:08.975Z,97687.69
2022-11-23T03:32:36.537Z,97698.75
2022-11-23T03:35:04.505Z,97702.19
2022-11-23T03:37:31.296Z,97694.06
2022-11-23T03:39:58.087Z,97704.06
2022-11-23T03:42:25.002Z,97700.56
2022-11-23T03:44:51.784Z,97699.03
2022-11-23T03:47:18.571Z,97696.56
2022-11-23T03:49:45.747Z,97699.63
2022-11-23T03:52:12.575Z,97695.75
2022-11-23T03:54:39.401Z,97705.56
2022-11-23T03:57:06.213Z,97704.81
2022-11-23T03:59:33.249Z,97695.75
2022-11-23T04:02:00.367Z,97699.81
2022-11-23T04:04:27.185Z,97701.50
2022-11-23T04:06:53.987Z,97697.41
2022-11-23T04:09:20.754Z,97694.75
2022-11-23T04:11:47.866Z,97681.06
2022-11-23T04:14:14.629Z,97683.63
2022-11-23T04:16:41.479Z,97683.50
2022-11-23T04:19:08.330Z,97676.41
2022-11-23T04:21:35.226Z,97687.28
2022-11-23T04:24:02.116Z,97683.22
2022-11-23T04:26:28.943Z,97692.53
2022-11-23T04:28:55.734Z,97691.69
2022-11-23T04:31:22.565Z,97690.63
2022-11-23T04:33:49.385Z,97681.41
2022-11-23T04:36:16.280Z,97675.41
2022-11-23T04:38:43.192Z,97688.66
2022-11-23T04:41:10.913Z,97680.94
2022-11-23T04:43:37.670Z,97684.41
2022-11-23T04:46:04.658Z,97676.09
2022-11-23T04:48:31.968Z,97664.28
2022-11-23T04:50:59.454Z,97663.00
2022-11-23T04:53:26.233Z,97685.84
2022-11-23T04:55:52.990Z,97684.31
2022-11-23T04:58:19.860Z,97674.63
2022-11-23T05:00:46.757Z,97678.81
2022-11-23T05:03:13.678Z,97668.00
2022-11-23T05:05:41.592Z,97672.91
2022-11-23T05:08:08.775Z,97673.81
2022-11-23T05:10:37.244Z,97678.22
2022-11-23T05:13:04.500Z,97679.94
2022-11-23T05:15:31.237Z,97683.44
2022-11-23T05:18:06.982Z,97680.94
2022-11-23T05:20:34.801Z,97685.31
2022-11-23T05:23:01.646Z,97681.91
2022-11-23T05:25:28.414Z,97682.75
2022-11-23T05:27:55.271Z,97682.75
2022-11-23T05:30:22.237Z,97643.72
2022-11-23T05:32:49.043Z,97674.28
2022-11-23T05:35:15.962Z,97668.97
2022-11-23T05:37:42.961Z,97658.63
2022-11-23T05:40:11.454Z,97643.09
2022-11-23T05:42:38.341Z,97665.50
2022-11-23T05:45:11.043Z,97675.13
2022-11-23T05:47:38.491Z,97670.88
2022-11-23T05:50:06.531Z,97676.00
2022-11-23T05:52:33.366Z,97666.56
2022-11-23T05:55:00.176Z,97664.09
2022-11-23T05:57:26.921Z,97660.06
2022-11-23T05:59:53.750Z,97667.31
2022-11-23T06:02:20.495Z,97662.19
2022-11-23T06:04:47.262Z,97668.38
2022-11-23T06:07:14.145Z,97661.00
2022-11-23T06:09:40.984Z,97667.50
2022-11-23T06:12:07.988Z,97668.38
2022-11-23T06:14:34.816Z,97671.13
2022-11-23T06:17:01.721Z,97654.50
2022-11-23T06:19:30.523Z,97666.28
2022-11-23T06:21:58.101Z,97662.06
2022-11-23T06:24:25.640Z,97667.28
2022-11-23T06:26:52.923Z,97671.56
2022-11-23T06:29:22.758Z,97670.09
2022-11-23T06:31:49.526Z,97677.78
2022-11-23T06:34:16.581Z,97670.22
2022-11-23T06:36:43.405Z,97672.03
2022-11-23T06:39:10.449Z,97673.09
2022-11-23T06:41:37.408Z,97683.97
2022-11-23T06:44:04.444Z,97683.22
2022-11-23T06:46:31.944Z,97682.31
2022-11-23T06:48:58.931Z,97685.72
2022-11-23T06:51:25.766Z,97691.94
2022-11-23T06:53:52.547Z,97683.53
2022-11-23T06:56:19.304Z,97700.38
2022-11-23T06:58:46.092Z,97702.22
2022-11-23T07:01:13.055Z,97698.88
2022-11-23T07:03:40.099Z,97702.34
2022-11-23T07:06:09.197Z,97702.84
2022-11-23T07:08:39.783Z,97705.97
2022-11-23T07:11:06.802Z,97705.13
2022-11-23T07:13:33.838Z,97713.00
2022-11-23T07:16:00.657Z,97717.06
2022-11-23T07:18:27.669Z,97701.66
2022-11-23T07:20:54.517Z,97708.47
2022-11-23T07:23:21.273Z,97717.22
2022-11-23T07:25:48.038Z,97728.41
2022-11-23T07:28:14.949Z,97717.22
2022-11-23T07:30:41.788Z,97717.38
2022-11-23T07:33:11.754Z,97720.84
2022-11-23T07:35:40.434Z,97721.75
2022-11-23T07:38:09.068Z,97710.56
2022-11-23T07:40:39.871Z,97708.91
2022-11-23T07:43:07.687Z,97711.31
2022-11-23T07:45:36.632Z,97726.66
2022-11-23T07:48:07.610Z,97727.66
2022-11-23T07:50:37.121Z,97721.47
2022-11-23T07:53:05.587Z,97723.28
2022-11-23T07:55:33.385Z,97723.34
2022-11-23T07:58:00.593Z,97723.34
2022-11-23T08:00:29.019Z,97717.53
2022-11-23T08:03:26.168Z,97739.22
2022-11-23T08:05:46.686Z,97736.50
2022-11-23T08:08:13.506Z,97735.53
2022-11-23T08:10:45.101Z,97708.84
2022-11-23T08:13:14.072Z,97735.28
2022-11-23T08:15:40.822Z,97731.00
2022-11-23T08:18:07.667Z,97728.25
2022-11-23T08:20:34.557Z,97730.59
2022-11-23T08:23:01.433Z,97732.19
2022-11-23T08:25:29.857Z,97732.97
2022-11-23T08:28:03.449Z,97729.47
2022-11-23T08:30:32.179Z,97727.50
2022-11-23T08:33:03.193Z,97728.25
2022-11-23T08:35:30.189Z,97727.22
2022-11-23T08:37:56.982Z,97728.84
2022-11-23T08:40:25.624Z,97736.19
2022-11-23T08:42:52.832Z,97726.59
2022-11-23T08:45:19.640Z,97735.03
2022-11-23T08:47:46.515Z,97721.03
2022-11-23T08:50:14.188Z,97723.53
2022-11-23T08:52:41.111Z,97721.72
2022-11-23T08:55:08.409Z,97712.56
2022-11-23T08:57:35.610Z,97721.47
2022-11-23T09:00:03.791Z,97722.81
2022-11-23T09:02:30.651Z,97727.50
2022-11-23T09:04:57.482Z,97728.19
2022-11-23T09:07:24.397Z,97730.41
2022-11-23T09:09:51.229Z,97713.06
2022-11-23T09:12:18.121Z,97729.81
2022-11-23T09:14:45.000Z,97731.94
2022-11-23T09:17:11.759Z,97723.22
2022-11-23T09:19:38.638Z,97727.28
2022-11-23T09:22:05.483Z,97726.31
2022-11-23T09:24:32.753Z,97726.06
2022-11-23T09:26:59.914Z,97716.69
2022-11-23T09:29:26.872Z,97729.88
2022-11-23T09:31:53.752Z,97723.66
2022-11-23T09:34:20.735Z,97721.97
2022-11-23T09:36:47.836Z,97724.91
2022-11-23T09:39:14.772Z,97731.72
2022-11-23T09:42:09.950Z,97724.47
2022-11-23T09:45:11.228Z,97701.84
2022-11-23T09:47:42.474Z,97714.63
2022-11-23T09:50:28.197Z,97710.94
2022-11-23T09:52:55.502Z,97703.78
2022-11-23T09:55:42.093Z,97703.97
2022-11-23T09:58:16.457Z,97707.56
2022-11-23T10:01:08.304Z,97706.94
2022-11-23T10:03:42.663Z,97704.44
2022-11-23T10:06:29.070Z,97699.94
2022-11-23T10:09:22.387Z,97699.72
2022-11-23T10:12:10.181Z,97703.75
2022-11-23T10:15:24.152Z,97682.66
2022-11-23T10:18:13.291Z,97693.03
2022-11-23T10:20:51.799Z,97693.69
2022-11-23T10:23:34.416Z,97691.00
2022-11-23T10:26:01.255Z,97684.69
2022-11-23T10:28:31.634Z,97678.25
2022-11-23T10:31:11.565Z,97685.84
2022-11-23T10:34:04.886Z,97684.00
2022-11-23T10:36:35.460Z,97683.75
2022-11-23T10:39:05.383Z,97683.47
2022-11-23T10:41:32.279Z,97679.59
2022-11-23T10:44:26.714Z,97683.50
2022-11-23T10:46:53.703Z,97671.34
2022-11-23T10:49:24.576Z,97671.59
2022-11-23T10:52:26.022Z,97670.25
2022-11-23T10:54:56.305Z,97652.53
2022-11-23T10:57:42.477Z,97646.44
2022-11-23T11:00:15.429Z,97664.06
2022-11-23T11:02:59.056Z,97671.53
2022-11-23T11:08:31.861Z,97667.31
2022-11-23T11:11:22.757Z,97660.47
2022-11-23T11:13:49.893Z,97663.88
2022-11-23T11:16:32.505Z,97666.19
2022-11-23T11:19:00.782Z,97654.22
2022-11-23T11:21:38.339Z,97651.03
2022-11-23T11:24:20.331Z,97642.19
2022-11-23T11:26:52.308Z,97642.84
2022-11-23T11:29:45.257Z,97642.66
2022-11-23T11:32:36.204Z,97640.50
2022-11-23T11:35:20.818Z,97636.53
2022-11-23T11:37:51.402Z,97638.94
2022-11-23T11:40:39.061Z,97616.91
2022-11-23T11:43:39.574Z,97623.78
2022-11-23T11:46:31.132Z,97631.81
2022-11-23T11:49:14.943Z,97622.13
2022-11-23T11:51:50.074Z,97617.91
2022-11-23T11:54:40.544Z,97620.91
2022-11-23T11:57:20.197Z,97611.13
2022-11-23T11:59:55.737Z,97610.16
2022-11-23T12:02:42.603Z,97609.22
2022-11-23T12:05:25.377Z,97611.69
2022-11-23T12:08:24.959Z,97606.25
2022-11-23T12:10:59.193Z,97611.19
2022-11-23T12:13:32.503Z,97597.25
2022-11-23T12:17:24.927Z,97593.81
2022-11-23T12:20:31.116Z,97584.59
2022-11-23T12:23:20.507Z,97588.22
2022-11-23T12:26:21.426Z,97579.94
2022-11-23T12:29:26.741Z,97570.63
2022-11-23T12:32:17.100Z,97574.78
2022-11-23T12:35:14.014Z,97573.72
2022-11-23T12:37:55.804Z,97578.06
2022-11-23T12:40:52.134Z,97575.56
2022-11-23T12:43:24.329Z,97573.59
2022-11-23T12:46:14.744Z,97575.28
2022-11-23T12:49:04.689Z,97576.34
2022-11-23T12:52:04.844Z,97563.00
2022-11-23T12:54:40.783Z,97562.91
2022-11-23T12:57:58.433Z,97563.84
2022-11-23T13:00:35.030Z,97562.72
2022-11-23T13:03:45.785Z,97555.44
2022-11-23T13:06:15.123Z,97555.63
2022-11-23T13:08:50.739Z,97556.13
2022-11-23T13:12:14.148Z,97539.69
2022-11-23T13:15:26.708Z,97534.41
2022-11-23T13:18:19.024Z,97539.69
2022-11-23T13:21:27.035Z,97548.19
2022-11-23T13:23:53.974Z,97527.84
2022-11-23T13:26:23.748Z,97549.94
2022-11-23T13:29:00.357Z,97547.91
2022-11-23T13:31:36.045Z,97535.84
2022-11-23T13:34:43.606Z,97541.44
2022-11-23T13:37:12.840Z,97531.09
2022-11-23T13:39:51.786Z,97530.78
2022-11-23T13:42:19.495Z,97534.06
2022-11-23T13:44:46.250Z,97534.66
2022-11-23T13:47:20.184Z,97521.16
2022-11-23T13:49:53.116Z,97518.53
2022-11-23T13:52:22.888Z,97513.75
2022-11-23T13:55:10.946Z,97510.25
2022-11-23T13:57:43.901Z,97508.16
2022-11-23T14:00:52.462Z,97501.06
2022-11-23T14:03:55.772Z,97494.25
2022-11-23T14:06:47.092Z,97496.47
2022-11-23T14:09:22.643Z,97497.13
2022-11-23T14:11:59.304Z,97490.31
2022-11-23T14:14:35.835Z,97492.81
2022-11-23T14:17:36.173Z,97484.66
2022-11-23T14:20:27.260Z,97472.63
2022-11-23T14:23:42.174Z,97479.47
2022-11-23T14:26:18.222Z,97475.94
2022-11-23T14:29:07.774Z,97476.78
2022-11-23T14:31:43.301Z,97476.66
2022-11-23T14:34:48.208Z,97475.22
2022-11-23T14:38:12.125Z,97472.63
2022-11-23T14:41:06.627Z,97469.56
2022-11-23T14:43:36.923Z,97470.50
2022-11-23T14:46:07.181Z,97464.16
2022-11-23T14:48:36.034Z,97468.41
2022-11-23T14:51:06.729Z,97472.88
2022-11-23T14:53:46.485Z,97474.88
2022-11-23T14:56:35.557Z,97464.69
2022-11-23T14:59:14.253Z,97471.53
2022-11-23T15:01:47.372Z,97469.06
2022-11-23T15:04:38.306Z,97467.28
2022-11-23T15:07:23.340Z,97464.91
2022-11-23T15:10:19.458Z,97457.25
2022-11-23T15:12:48.849Z,97449.72
2022-11-23T15:15:21.708Z,97454.91
2022-11-23T15:17:56.032Z,97447.25
2022-11-23T15:20:27.901Z,97436.03
2022-11-23T15:22:54.938Z,97446.63
2022-11-23T15:25:21.828Z,97441.09
2022-11-23T15:27:49.282Z,97454.66
2022-11-23T15:30:19.930Z,97451.44
2022-11-23T15:33:05.299Z,97446.81
2022-11-23T15:35:35.314Z,97453.75
2022-11-23T15:38:04.458Z,97455.78
2022-11-23T15:40:36.267Z,97467.53
2022-11-23T15:43:03.941Z,97468.50
2022-11-23T15:45:55.999Z,97466.94
2022-11-23T15:48:29.283Z,97454.34
2022-11-23T15:51:08.854Z,97441.34
2022-11-23T15:53:51.253Z,97452.41
2022-11-23T15:56:33.250Z,97452.63
2022-11-23T15:59:14.644Z,97460.84
2022-11-23T16:01:41.584Z,97457.75
2022-11-23T16:04:27.821Z,97465.75
2022-11-23T16:06:56.058Z,97461.84
2022-11-23T16:09:53.798Z,97459.81
2022-11-23T16:12:28.329Z,97460.22
2022-11-23T16:15:34.125Z,97477.44
2022-11-23T16:18:02.405Z,97477.44
2022-11-23T16:20:29.829Z,97474.34
2022-11-23T16:22:59.984Z,97468.56
2022-11-23T16:25:31.643Z,97482.03
2022-11-23T16:28:14.213Z,97498.56
2022-11-23T16:30:44.334Z,97507.25
2022-11-23T16:33:20.051Z,97509.25
2022-11-23T16:35:47.595Z,97505.81
2022-11-23T16:38:14.432Z,97503.22
2022-11-23T16:40:45.742Z,97517.22
2022-11-23T16:43:13.644Z,97526.75
2022-11-23T16:45:44.400Z,97527.75
2022-11-23T16:48:26.570Z,97524.06
2022-11-23T16:50:55.138Z,97530.28
2022-11-23T16:53:22.555Z,97536.69
2022-11-23T16:55:57.720Z,97539.78
2022-11-23T16:58:25.623Z,97550.25
2022-11-23T17:00:52.468Z,97558.97
2022-11-23T17:03:21.206Z,97572.19
2022-11-23T17:05:48.502Z,97585.75
2022-11-23T17:08:21.565Z,97584.94
2022-11-23T17:10:50.997Z,97581.13
2022-11-23T17:13:28.904Z,97591.13
2022-11-23T17:15:55.997Z,97599.94
2022-11-23T17:18:22.950Z,97610.19
2022-11-23T17:20:49.847Z,97616.28
2022-11-23T17:23:16.992Z,97623.84
2022-11-23T17:25:43.911Z,97624.22
2022-11-23T17:28:17.015Z,97632.94
2022-11-23T17:30:43.888Z,97641.22
2022-11-23T17:33:12.062Z,97641.94
2022-11-23T17:35:39.965Z,97637.16
2022-11-23T17:38:12.964Z,97644.75
2022-11-23T17:40:39.860Z,97649.91
2022-11-23T17:43:06.840Z,97656.94
2022-11-23T17:45:34.336Z,97662.91
2022-11-23T17:48:03.547Z,97670.78
2022-11-23T17:50:30.675Z,97660.84
2022-11-23T17:52:57.489Z,97675.16
2022-11-23T17:55:24.259Z,97671.72
2022-11-23T17:57:51.130Z,97683.00
2022-11-23T18:00:21.711Z,97689.63
2022-11-23T18:02:49.405Z,97678.63
2022-11-23T18:05:21.453Z,97682.34
2022-11-23T18:07:50.130Z,97696.00
2022-11-23T18:10:17.587Z,97698.75
2022-11-23T18:12:47.630Z,97700.53
2022-11-23T18:15:14.426Z,97710.88
2022-11-23T18:17:41.726Z,97722.22
2022-11-23T18:20:10.050Z,97717.06
2022-11-23T18:22:37.123Z,97700.88
2022-11-23T18:25:04.488Z,97719.28
2022-11-23T18:27:31.434Z,97715.50
2022-11-23T18:29:58.331Z,97718.16
2022-11-23T18:32:25.175Z,97712.84
2022-11-23T18:34:52.019Z,97730.38
2022-11-23T18:37:18.854Z,97737.28
2022-11-23T18:39:45.927Z,97742.59
2022-11-23T18:42:13.997Z,97744.84
2022-11-23T18:44:40.777Z,97736.44
2022-11-23T18:47:07.619Z,97740.03
2022-11-23T18:49:34.815Z,97744.84
2022-11-23T18:52:01.849Z,97747.41
2022-11-23T18:54:28.684Z,97748.31
2022-11-23T18:56:55.523Z,97757.75
2022-11-23T18:59:56.263Z,97751.84
2022-11-23T19:02:10.708Z,97757.31
2022-11-23T19:04:38.667Z,97758.22
2022-11-23T19:07:05.994Z,97762.47
2022-11-23T19:09:33.084Z,97776.03
2022-11-23T19:12:01.098Z,97777.69
2022-11-23T19:14:28.004Z,97775.19
2022-11-23T19:16:54.825Z,97777.88
2022-11-23T19:19:21.741Z,97783.78
2022-11-23T19:21:48.718Z,97787.56
2022-11-23T19:24:15.502Z,97782.22
2022-11-23T19:26:42.347Z,97782.84
2022-11-23T19:29:09.205Z,97787.09
2022-11-23T19:31:36.060Z,97798.25
2022-11-23T19:34:06.047Z,97789.41
2022-11-23T19:36:36.274Z,97802.59
2022-11-23T19:39:05.395Z,97807.22
2022-11-23T19:41:32.272Z,97819.31
2022-11-23T19:44:00.961Z,97819.41
2022-11-23T19:46:30.252Z,97822.72
2022-11-23T19:48:58.129Z,97827.72
2022-11-23T19:51:26.767Z,97836.38
2022-11-23T19:53:56.889Z,97838.06
2022-11-23T19:56:25.695Z,97850.59
2022-11-23T19:58:55.626Z,97856.41
2022-11-23T20:01:24.921Z,97853.72
2022-11-23T20:03:55.453Z,97862.50
2022-11-23T20:06:28.601Z,97855.94
2022-11-23T20:09:01.658Z,97871.44
2022-11-23T20:11:31.370Z,97876.16
2022-11-23T20:13:58.972Z,97888.25
2022-11-23T20:16:28.161Z,97888.44
2022-11-23T20:19:06.717Z,97903.94
2022-11-23T20:21:34.703Z,97895.06
2022-11-23T20:24:09.879Z,97893.69
2022-11-23T20:26:37.171Z,97907.31
2022-11-23T20:29:05.957Z,97921.75
2022-11-23T20:31:33.880Z,97924.03
2022-11-23T20:34:00.984Z,97922.38
2022-11-23T20:36:36.576Z,97936.91
2022-11-23T20:39:07.084Z,97936.06
2022-11-23T20:41:36.222Z,97960.06
2022-11-23T20:44:12.413Z,97961.72
2022-11-23T20:49:26.597Z,97973.88
2022-11-23T20:51:53.447Z,97984.88
2022-11-23T20:54:20.351Z,97983.22
2022-11-23T20:56:47.157Z,97990.13
2022-11-23T20:59:14.006Z,98003.91
2022-11-23T21:01:41.004Z,98001.31
2022-11-23T21:04:08.992Z,98013.94
2022-11-23T21:06:39.558Z,98023.38
2022-11-23T21:09:08.725Z,98013.19
2022-11-23T21:11:54.199Z,98036.88
2022-11-23T21:14:24.604Z,98037.59
2022-11-23T21:16:59.359Z,98042.59
2022-11-23T21:19:35.900Z,98045.19
2022-11-23T21:22:11.964Z,98054.69
2022-11-23T21:24:39.356Z,98052.00
2022-11-23T21:27:08.837Z,98059.56
2022-11-23T21:29:35.671Z,98070.00
2022-11-23T21:32:02.582Z,98062.25
2022-11-23T21:34:30.361Z,98026.59
2022-11-23T21:36:58.034Z,98072.69
2022-11-23T21:39:25.170Z,98077.84
2022-11-23T21:41:53.677Z,98085.53
2022-11-23T21:44:22.957Z,98083.41
2022-11-23T21:46:50.271Z,98093.38
2022-11-23T21:49:17.344Z,98089.28
2022-11-23T21:51:45.502Z,98097.03
2022-11-23T21:54:15.728Z,98098.63
2022-11-23T21:56:45.032Z,98104.41
2022-11-23T21:59:12.886Z,98116.25
2022-11-23T22:01:40.340Z,98128.41
2022-11-23T22:04:13.090Z,98131.75
2022-11-23T22:06:42.083Z,98131.94
2022-11-23T22:09:10.293Z,98146.50
2022-11-23T22:11:40.862Z,98142.28
2022-11-23T22:14:11.631Z,98149.94
2022-11-23T22:16:47.241Z,98150.69
2022-11-23T22:19:16.615Z,98132.78
2022-11-23T22:21:45.088Z,98156.09
2022-11-23T22:24:18.757Z,98152.75
2022-11-23T22:26:47.513Z,98162.53
2022-11-23T22:29:14.438Z,98170.13
2022-11-23T22:31:41.710Z,98171.03
2022-11-23T22:34:11.998Z,98166.38
2022-11-23T22:36:38.995Z,98174.56
2022-11-23T22:39:07.620Z,98170.47
2022-11-23T22:41:36.841Z,98183.28
2022-11-23T22:44:06.269Z,98184.31
2022-11-23T22:46:33.189Z,98185.22
2022-11-23T22:49:00.129Z,98174.66
2022-11-23T22:51:28.782Z,98196.56
2022-11-23T22:54:00.384Z,98203.13
2022-11-23T22:56:29.129Z,98201.47
2022-11-23T22:58:56.287Z,98194.31
2022-11-23T23:01:29.657Z,98209.97
2022-11-23T23:03:59.371Z,98216.13
2022-11-23T23:06:29.297Z,98216.13
2022-11-23T23:08:58.915Z,98216.97
2022-11-23T23:11:29.154Z,98215.50
2022-11-23T23:13:56.240Z,98223.16
2022-11-23T23:16:23.830Z,98195.31
2022-11-23T23:18:51.403Z,98219.41
2022-11-23T23:21:20.609Z,98217.22
2022-11-23T23:23:50.897Z,98233.47
2022-11-23T23:26:21.115Z,98231.72
2022-11-23T23:28:48.470Z,98239.53
2022-11-23T23:31:16.955Z,98239.63
2022-11-23T23:33:45.564Z,98243.22
2022-11-23T23:36:19.642Z,98240.28
2022-11-23T23:38:46.602Z,98250.38
2022-11-23T23:41:14.501Z,98248.13
2022-11-23T23:43:42.425Z,98253.19
2022-11-23T23:46:12.280Z,98254.13
2022-11-23T23:48:40.323Z,98254.72
2022-11-23T23:51:13.161Z,98258.59
2022-11-23T23:53:40.553Z,98269.69
2022-11-23T23:56:16.034Z,98267.78
2022-11-23T23:58:43.405Z,98264.28
